Ana Sayfa
METAR-TAF:

METAR-TAF

Havaalanları :

Frankfort, Michigan, Amerika Birleşik Devletleri

Enlem: 44-37-30N, Boylam: 086-12-02W, yükseklik: 193 m

Güncel hava durumu gözlemi

Rapor saat 02:55 UTC de 11 dakika önce yapıldı.
Rüzgar batıdan 9 kt ve 17 kt'a kadar ani rüzgarlar
Sıcaklık -8°C
Nem 67%
Basınç 1021 hPa
Görüş mesafesi: 16.1 km
2500 ft yükseklikte parçalı çok bulutlu
3200 ft yükseklikte çok bulutlu

METAR: KFKS 110255Z AUTO 26009G17KT 10SM BKN025 OVC032 M08/M13 A3015 RMK AO2 T10851131

Saat: 22:06 (03:06 UTC)


TAF: eksik

4.000'den fazla havaalanı için hava durumu gözlemleri ve tahminleri (METAR ve TAF raporları).

Kullanılabilir istasyonlar harita üzerinde sarı ve kırmızı noktalarla gösterilir.

İstasyonun adını görmek için fareyi noktanın üzerinde gezdirin.

Sonrasında hava gözlem ve tahminlerini görmek için tıklayın.

Haritayı değiştirmek için: yaklaştırmak için siyah artı işaretli yeşil düğmeye ve uzaklaştırmak için de eksi işaretli düğmeye hızla tıklayın; bitişik haritalar için yeşil okları kullanın.


METAR-TAF: